Decoded Metar for LFMC (LE LUC in FRANCE) (IATA:N/A) | Meteo·Mobile Aviation Weather
aviador You're here:

LFMC Decoded Metar

LE LUC in FRANCE
Report Time2018-10-22 15:00:00
UTC Time2018-10-22 15:10:52
Flight Rules vfr VFR
Wind240° at 07 kt
W.Decomp.*RWY 27: 6.0 kt HW 3.6 kt LCW
RWY 31: 2.3 kt HW 6.6 kt LCW
W.Rank240° ranks 6
Current wind is above 240° avg. (5.9)
Visibility9999 m
Phenomena:N/A
Clouds:N/A
Expected CloudBase > 4,000 ft AGL from Temp-Dew spread
CeilingNone
Temp21°C (ISA +7)
Dew Point11°C (53% RH)
AAT18.8°C
QNH1018 hPa
Density Alt1,027 ft
Elevation256 ft
Report Wrong Elevation
Raw Report
METAR LFMC 221500Z 24007KT CAVOK 21/11 Q1018=

Extra information for LFMC:More info

Metar Taf Metar & Taf Last 4 Metars F.Rules Stats Wind Profile Meteogram Temp Stats Airport Information Weather charts Add Link Nearby VenuesMetar ALERT Operation Metar Decoded Social comments